Time;durP1;ratioP1;P1;durP2;ratioP2;P2;SDS_P1;SDS_P2;PMS_P1;PMS_P2;Temp;Humidity;BMP_temperature;BMP_pressure;BME280_temperature;BME280_humidity;BME280_pressure;Samples;Min_cycle;Max_cycle;Signal;HPM_P1;HPM_P2
2022/01/12 00:01:05;;;;;;;11.40;10.13;;;;;;;1.89;100.00;100053.66;5054694;28;20263;-71
2022/01/12 00:03:32;;;;;;;8.40;7.70;;;;;;;1.79;100.00;100055.19;5054620;28;20236;-71
2022/01/12 00:05:59;;;;;;;7.77;7.17;;;;;;;1.84;100.00;100061.16;5054520;28;20201;-71
2022/01/12 00:08:26;;;;;;;7.87;7.07;;;;;;;1.87;100.00;100068.81;5063362;28;20240;-71
2022/01/12 00:10:56;;;;;;;7.33;6.63;;;;;;;1.88;100.00;100069.66;5074498;28;20330;-71
2022/01/12 00:13:23;;;;;;;5.90;5.10;;;;;;;1.83;100.00;100056.09;5074246;28;20204;-70
2022/01/12 00:15:51;;;;;;;5.87;5.27;;;;;;;1.99;100.00;100074.06;5074472;28;20657;-71
2022/01/12 00:18:18;;;;;;;6.30;5.80;;;;;;;2.01;100.00;100079.97;5074139;28;20227;-71
2022/01/12 00:20:45;;;;;;;6.17;5.60;;;;;;;1.99;100.00;100084.16;5074363;28;20208;-71
2022/01/12 00:23:12;;;;;;;6.97;5.53;;;;;;;2.02;100.00;100088.41;5074191;28;20203;-71
2022/01/12 00:25:57;;;;;;;6.07;5.57;;;;;;;2.03;100.00;100088.44;5073981;28;20207;-71
2022/01/12 00:33:57;;;;;;;11.33;8.90;;;;;;;2.22;100.00;100096.28;5074174;28;20603;-71
2022/01/12 00:36:24;;;;;;;7.70;6.97;;;;;;;2.27;100.00;100094.66;5073849;28;20203;-69
2022/01/12 00:38:51;;;;;;;8.83;6.53;;;;;;;2.33;100.00;100085.47;5074104;28;20582;-70
2022/01/12 00:41:18;;;;;;;6.93;6.23;;;;;;;2.38;100.00;100083.88;5073892;28;20211;-70
2022/01/12 00:43:49;;;;;;;6.70;6.10;;;;;;;2.32;100.00;100075.38;5073785;28;20212;-70
2022/01/12 00:46:18;;;;;;;7.27;6.53;;;;;;;2.30;100.00;100085.44;5073840;28;20208;-70
2022/01/12 00:48:45;;;;;;;17.73;11.83;;;;;;;2.32;100.00;100083.81;5073704;28;20561;-70
2022/01/12 00:51:12;;;;;;;18.10;12.00;;;;;;;2.23;100.00;100093.78;5073712;28;20204;-70
2022/01/12 00:53:40;;;;;;;8.47;7.73;;;;;;;2.22;100.00;100081.13;5073652;28;20286;-70
2022/01/12 00:56:07;;;;;;;7.93;7.17;;;;;;;2.29;100.00;100080.38;5073704;28;20634;-71
2022/01/12 00:58:34;;;;;;;7.23;6.53;;;;;;;2.28;100.00;100086.25;5073413;28;20216;-71
2022/01/12 01:01:01;;;;;;;6.73;6.13;;;;;;;2.21;100.00;100064.22;5074270;28;20207;-71
2022/01/12 01:03:30;;;;;;;6.53;5.93;;;;;;;2.21;100.00;100081.94;5073482;28;20269;-70
2022/01/12 01:05:57;;;;;;;5.83;5.33;;;;;;;2.21;100.00;100089.53;5073331;28;20204;-70
2022/01/12 01:08:24;;;;;;;5.83;5.27;;;;;;;2.22;100.00;100092.09;5073301;28;20226;-71
2022/01/12 01:10:53;;;;;;;5.00;4.63;;;;;;;2.20;100.00;100087.84;5073087;28;20204;-70
2022/01/12 01:13:25;;;;;;;6.73;6.13;;;;;;;2.25;100.00;100091.28;5073395;28;20230;-70
2022/01/12 01:16:06;;;;;;;6.30;5.70;;;;;;;2.32;100.00;100086.34;5073091;28;20298;-70
2022/01/12 01:26:50;;;;;;;6.67;6.00;;;;;;;2.51;100.00;100084.91;5072987;28;20649;-72
2022/01/12 01:29:18;;;;;;;6.57;5.97;;;;;;;2.53;100.00;100088.28;5073089;28;20694;-71
2022/01/12 01:31:45;;;;;;;7.20;6.23;;;;;;;2.53;100.00;100088.28;5072895;28;20204;-71
2022/01/12 01:34:15;;;;;;;9.60;6.13;;;;;;;2.52;100.00;100086.59;5072760;28;20207;-72
2022/01/12 01:36:45;;;;;;;6.13;5.53;;;;;;;2.48;100.00;100097.50;5072710;28;20256;-72
2022/01/12 01:39:14;;;;;;;7.23;5.63;;;;;;;2.46;100.00;100091.56;5072691;28;20215;-71
2022/01/12 01:41:44;;;;;;;5.50;5.00;;;;;;;2.33;100.00;100090.53;5072727;28;20569;-71
2022/01/12 01:55:14;;;;;;;6.43;5.70;;;;;;;2.33;100.00;100104.88;5072305;28;20640;-71
2022/01/12 01:57:42;;;;;;;5.60;5.23;;;;;;;2.25;100.00;100106.47;5072004;28;20285;-71
2022/01/12 02:00:11;;;;;;;5.80;5.33;;;;;;;2.22;100.00;100103.88;5072275;28;20204;-71
2022/01/12 02:02:38;;;;;;;6.37;5.50;;;;;;;2.08;100.00;100106.19;5072309;28;20675;-71
2022/01/12 02:05:07;;;;;;;7.77;5.20;;;;;;;2.10;100.00;100107.09;5072107;28;20203;-71
2022/01/12 02:07:34;;;;;;;5.27;4.87;;;;;;;2.09;100.00;100107.91;5070214;28;20207;-71
2022/01/12 02:10:01;;;;;;;5.77;5.03;;;;;;;2.01;100.00;100104.41;5052312;28;20205;-71
2022/01/12 02:12:29;;;;;;;5.90;5.37;;;;;;;1.95;100.00;100100.09;5052115;28;20635;-71
2022/01/12 02:14:56;;;;;;;4.90;4.47;;;;;;;2.07;100.00;100115.47;5052189;28;20208;-71
2022/01/12 02:17:27;;;;;;;5.87;5.40;;;;;;;2.00;100.00;100116.19;5051943;28;20231;-71
2022/01/12 02:20:11;;;;;;;7.33;5.83;;;;;;;1.96;100.00;100124.56;5052053;28;20216;-71
2022/01/12 02:36:30;;;;;;;6.80;6.20;;;;;;;1.59;100.00;100138.28;5051864;28;20227;-71
2022/01/12 02:41:43;;;;;;;5.83;5.43;;;;;;;1.50;100.00;100153.28;5052095;28;20581;-72
2022/01/12 02:55:10;;;;;;;7.70;6.20;;;;;;;1.37;100.00;100153.00;5051758;28;20212;-72
2022/01/12 02:57:37;;;;;;;7.20;6.50;;;;;;;1.34;100.00;100150.44;5051407;28;20224;-72
2022/01/12 03:00:09;;;;;;;7.03;6.40;;;;;;;1.32;100.00;100157.16;5051653;28;20204;-72
2022/01/12 03:02:38;;;;;;;6.67;6.10;;;;;;;1.35;100.00;100152.16;5051428;28;20205;-71
2022/01/12 03:07:58;;;;;;;8.57;6.63;;;;;;;1.19;100.00;100160.25;5046511;28;20233;-71
2022/01/12 03:10:26;;;;;;;7.00;6.23;;;;;;;1.15;100.00;100155.97;5055590;28;20212;-72
2022/01/12 03:12:53;;;;;;;6.80;5.43;;;;;;;1.23;100.00;100172.13;5055416;28;20641;-72
2022/01/12 03:15:20;;;;;;;6.77;6.20;;;;;;;1.14;100.00;100176.97;5055529;28;20214;-72
2022/01/12 03:17:47;;;;;;;6.43;5.90;;;;;;;1.16;100.00;100170.28;5055185;28;20225;-72
2022/01/12 03:20:14;;;;;;;6.90;6.20;;;;;;;1.13;100.00;100172.75;5055525;28;20212;-72
2022/01/12 03:22:41;;;;;;;6.53;6.03;;;;;;;1.18;100.00;100178.75;5055357;28;20676;-72
2022/01/12 03:25:09;;;;;;;7.77;6.77;;;;;;;1.18;100.00;100184.66;5055486;28;20672;-72
2022/01/12 03:27:38;;;;;;;7.07;5.73;;;;;;;1.11;100.00;100181.97;5055275;28;20201;-71
2022/01/12 03:30:06;;;;;;;8.43;5.97;;;;;;;1.10;100.00;100180.28;5044865;28;20227;-71
2022/01/12 03:32:38;;;;;;;8.97;5.73;;;;;;;1.04;100.00;100181.84;5035318;28;20201;-72
2022/01/12 03:35:12;;;;;;;6.67;5.97;;;;;;;0.98;100.00;100185.91;5035231;28;20201;-72
2022/01/12 03:37:54;;;;;;;8.03;7.03;;;;;;;0.95;100.00;100186.72;5035168;28;20312;-72
2022/01/12 03:40:21;;;;;;;5.60;5.20;;;;;;;0.93;100.00;100187.50;5035295;28;20205;-72
2022/01/12 03:42:50;;;;;;;7.27;6.07;;;;;;;0.99;100.00;100188.47;5035085;28;20264;-72
2022/01/12 03:45:17;;;;;;;6.63;6.03;;;;;;;0.90;100.00;100189.97;5035026;28;20201;-72
2022/01/12 03:47:43;;;;;;;6.50;5.97;;;;;;;1.03;100.00;100202.03;5034994;28;20208;-72
2022/01/12 03:50:10;;;;;;;7.47;6.47;;;;;;;1.06;100.00;100199.56;5034867;28;20209;-71
2022/01/12 03:52:37;;;;;;;5.50;5.10;;;;;;;0.93;100.00;100188.34;5034921;28;20634;-71
2022/01/12 03:55:05;;;;;;;6.93;6.30;;;;;;;1.07;100.00;100205.47;5034669;28;20213;-71
2022/01/12 03:57:32;;;;;;;5.70;5.27;;;;;;;1.05;100.00;100208.81;5034874;28;20356;-72
2022/01/12 04:00:00;;;;;;;7.63;5.87;;;;;;;0.97;100.00;100200.19;5034691;28;20656;-72
2022/01/12 04:02:27;;;;;;;7.03;6.33;;;;;;;1.09;100.00;100224.00;5034919;28;20205;-72
2022/01/12 04:05:09;;;;;;;6.77;6.17;;;;;;;1.09;100.00;100208.88;5034644;28;20595;-72
2022/01/12 04:10:21;;;;;;;8.03;5.90;;;;;;;1.10;100.00;100224.03;5054523;28;20762;-72
2022/01/12 04:12:48;;;;;;;6.97;6.30;;;;;;;0.96;100.00;100222.91;5054564;28;20811;-72
2022/01/12 04:15:16;;;;;;;6.13;5.63;;;;;;;0.98;100.00;100242.31;5054331;28;20205;-72
2022/01/12 04:17:43;;;;;;;6.70;5.37;;;;;;;0.97;100.00;100243.13;5054446;28;20228;-72
2022/01/12 04:20:10;;;;;;;7.97;5.20;;;;;;;0.87;100.00;100233.63;5053768;28;20270;-72
2022/01/12 04:25:23;;;;;;;11.27;5.83;;;;;;;1.01;100.00;100261.72;5054698;28;20208;-72
2022/01/12 04:27:50;;;;;;;7.17;5.97;;;;;;;0.97;100.00;100262.47;5054390;28;20236;-72
2022/01/12 04:30:18;;;;;;;8.57;5.77;;;;;;;0.84;100.00;100258.81;5054156;28;20228;-71
2022/01/12 04:32:45;;;;;;;7.50;6.23;;;;;;;0.96;100.00;100263.28;5054354;28;20262;-72
2022/01/12 04:35:13;;;;;;;7.90;6.37;;;;;;;0.91;100.00;100270.75;5053927;28;20204;-71
2022/01/12 04:37:40;;;;;;;7.53;6.73;;;;;;;0.92;100.00;100264.91;5053972;28;20592;-71
2022/01/12 04:40:08;;;;;;;6.33;5.73;;;;;;;0.93;100.00;100281.75;5054007;28;20211;-72
2022/01/12 04:42:36;;;;;;;6.70;6.10;;;;;;;0.90;100.00;100278.31;5053753;28;20210;-72
2022/01/12 04:45:16;;;;;;;7.10;6.40;;;;;;;0.98;100.00;100292.78;5054135;28;20201;-72
2022/01/12 04:50:30;;;;;;;6.60;5.80;;;;;;;0.90;100.00;100289.25;5053469;28;20211;-72
2022/01/12 04:52:57;;;;;;;6.67;5.97;;;;;;;0.94;100.00;100298.59;5053854;28;20227;-71
2022/01/12 04:55:24;;;;;;;10.93;6.97;;;;;;;0.95;100.00;100302.81;5053544;28;20204;-72
2022/01/12 04:57:51;;;;;;;6.93;6.33;;;;;;;0.93;100.00;100296.91;5053489;28;20225;-72
2022/01/12 05:00:21;;;;;;;7.60;6.83;;;;;;;0.76;100.00;100285.56;5053481;28;20213;-72
2022/01/12 05:08:34;;;;;;;6.37;5.87;;;;;;;0.86;100.00;100302.63;5053508;28;20224;-71
2022/01/12 05:13:49;;;;;;;6.80;6.13;;;;;;;0.82;100.00;100313.47;5053484;28;20208;-72
2022/01/12 05:16:16;;;;;;;8.30;6.13;;;;;;;0.71;100.00;100287.09;5053278;28;20204;-72
2022/01/12 05:18:46;;;;;;;8.23;6.10;;;;;;;0.75;100.00;100303.19;5053049;28;20714;-72
2022/01/12 05:21:13;;;;;;;6.10;5.60;;;;;;;0.81;100.00;100324.34;5053614;28;20204;-72
2022/01/12 05:23:41;;;;;;;9.43;7.30;;;;;;;0.81;100.00;100323.53;5052943;28;20211;-70
2022/01/12 05:26:08;;;;;;;6.93;6.27;;;;;;;0.74;100.00;100325.06;5053071;28;20265;-72
2022/01/12 05:28:38;;;;;;;6.80;6.20;;;;;;;0.71;100.00;100326.66;5053098;28;20197;-72
2022/01/12 05:31:05;;;;;;;6.60;6.10;;;;;;;0.75;100.00;100336.84;5052166;28;20209;-71
2022/01/12 05:33:33;;;;;;;7.60;5.80;;;;;;;0.64;100.00;100327.31;5052843;28;20262;-71
2022/01/12 05:36:04;;;;;;;5.93;5.50;;;;;;;0.69;100.00;100339.22;5052762;28;20208;-71
2022/01/12 05:38:31;;;;;;;7.87;5.87;;;;;;;0.74;100.00;100346.91;5052805;28;20608;-72
2022/01/12 05:41:00;;;;;;;6.70;6.03;;;;;;;0.74;100.00;100341.88;5052699;28;20787;-71
2022/01/12 05:43:29;;;;;;;7.70;6.90;;;;;;;0.75;100.00;100354.50;5052777;28;20299;-71
2022/01/12 05:45:57;;;;;;;7.57;6.87;;;;;;;0.65;100.00;100342.47;5052508;28;20243;-71
2022/01/12 05:51:11;;;;;;;7.53;6.83;;;;;;;0.68;100.00;100372.81;5052724;28;20208;-71
2022/01/12 05:53:37;;;;;;;7.50;6.20;;;;;;;0.69;100.00;100378.72;5052559;28;20205;-71
2022/01/12 05:56:05;;;;;;;6.37;5.73;;;;;;;0.64;100.00;100381.16;5052440;28;20200;-71
2022/01/12 05:58:32;;;;;;;7.20;5.83;;;;;;;0.68;99.85;100382.09;5052443;28;20704;-72
2022/01/12 06:00:59;;;;;;;6.70;6.00;;;;;;;0.58;99.97;100390.25;5052625;28;20632;-70
2022/01/12 06:03:26;;;;;;;7.07;6.33;;;;;;;0.58;100.00;100390.25;5052537;28;20215;-71
2022/01/12 06:05:53;;;;;;;7.50;6.40;;;;;;;0.59;100.00;100405.41;5052335;28;20266;-71
2022/01/12 06:08:21;;;;;;;7.67;6.80;;;;;;;0.61;100.00;100413.03;5052268;28;20235;-71
2022/01/12 06:10:48;;;;;;;7.00;6.43;;;;;;;0.48;100.00;100405.16;5052305;28;20601;-71
2022/01/12 06:13:15;;;;;;;6.50;5.93;;;;;;;0.56;100.00;100420.47;5052111;28;20201;-71
2022/01/12 06:15:42;;;;;;;6.83;6.23;;;;;;;0.46;100.00;100416.84;5052225;28;20335;-71
2022/01/12 06:18:09;;;;;;;6.83;5.23;;;;;;;0.45;99.97;100414.31;5051891;28;20211;-70
2022/01/12 06:20:35;;;;;;;7.27;6.23;;;;;;;0.59;100.00;100442.38;5052227;28;20699;-72
2022/01/12 06:23:03;;;;;;;9.83;5.90;;;;;;;0.60;100.00;100439.06;5052100;28;20228;-71
2022/01/12 06:25:31;;;;;;;7.27;6.57;;;;;;;0.60;99.63;100444.97;5051857;28;20208;-71
2022/01/12 06:28:20;;;;;;;7.20;6.27;;;;;;;0.55;100.00;100435.56;5051862;28;20209;-71
2022/01/12 06:33:28;;;;;;;11.70;8.83;;;;;;;0.55;99.02;100460.81;5044463;28;20204;-71
2022/01/12 06:35:55;;;;;;;9.20;8.37;;;;;;;0.47;100.00;100463.97;5051923;28;20669;-71
2022/01/12 06:38:22;;;;;;;9.33;8.33;;;;;;;0.51;100.00;100464.91;5051539;28;20221;-71
2022/01/12 06:40:50;;;;;;;7.60;7.07;;;;;;;0.56;100.00;100473.44;5051788;28;20204;-71
2022/01/12 06:43:17;;;;;;;7.37;6.67;;;;;;;0.53;100.00;100468.31;5051338;28;20210;-70
2022/01/12 06:45:44;;;;;;;13.67;9.20;;;;;;;0.45;98.96;100470.63;5051607;28;20232;-71
2022/01/12 06:48:12;;;;;;;11.37;8.33;;;;;;;0.52;98.55;100481.72;5051712;28;20582;-71
2022/01/12 06:50:38;;;;;;;7.60;6.80;;;;;;;0.48;99.30;100485.88;5051587;28;20204;-70
2022/01/12 06:53:05;;;;;;;12.83;7.17;;;;;;;0.47;98.99;100483.28;5051666;28;20208;-71
2022/01/12 06:55:32;;;;;;;10.50;7.30;;;;;;;0.52;100.00;100491.81;5051530;28;20558;-71
2022/01/12 06:58:00;;;;;;;8.97;7.60;;;;;;;0.52;100.00;100501.91;5051637;28;20242;-71
2022/01/12 07:00:27;;;;;;;7.90;7.13;;;;;;;0.49;99.84;100501.84;5051314;28;20221;-71
2022/01/12 07:02:54;;;;;;;7.50;6.80;;;;;;;0.54;100.00;100510.41;5051596;28;20209;-72
2022/01/12 07:05:21;;;;;;;7.70;6.77;;;;;;;0.57;100.00;100510.47;5051638;28;20204;-71
2022/01/12 07:07:47;;;;;;;7.43;6.73;;;;;;;0.43;100.00;100481.47;5051256;28;20240;-71
2022/01/12 07:10:14;;;;;;;7.77;6.87;;;;;;;0.59;100.00;100513.88;5051564;28;20750;-70
2022/01/12 07:12:41;;;;;;;7.20;6.37;;;;;;;0.52;100.00;100522.09;5051402;28;20673;-71
2022/01/12 07:15:10;;;;;;;7.80;7.00;;;;;;;0.53;100.00;100517.09;5051460;28;20216;-71
2022/01/12 07:17:37;;;;;;;9.37;7.80;;;;;;;0.51;99.34;100515.34;5039732;28;20590;-60
2022/01/12 07:20:05;;;;;;;9.63;8.60;;;;;;;0.52;98.90;100524.63;5037931;28;20213;-59
2022/01/12 07:22:32;;;;;;;9.73;8.30;;;;;;;0.61;99.03;100532.47;5036015;28;20197;-59
2022/01/12 07:24:59;;;;;;;12.70;8.77;;;;;;;0.57;98.49;100520.56;5040602;28;20209;-59
2022/01/12 07:27:26;;;;;;;11.37;9.70;;;;;;;0.59;97.71;100538.25;5042036;28;20204;-70
2022/01/12 07:29:52;;;;;;;18.87;12.90;;;;;;;0.59;98.23;100544.16;5051198;28;20204;-74
2022/01/12 07:32:21;;;;;;;41.13;26.90;;;;;;;0.55;97.47;100544.88;5047198;28;20232;-69
2022/01/12 07:34:48;;;;;;;12.70;10.33;;;;;;;0.53;96.82;100544.84;5051394;28;20669;-68
2022/01/12 07:37:14;;;;;;;9.17;8.27;;;;;;;0.55;98.37;100551.63;5040954;28;20652;-69
2022/01/12 07:39:41;;;;;;;8.90;8.03;;;;;;;0.68;99.70;100552.00;5031185;28;20225;-69
2022/01/12 07:42:08;;;;;;;8.60;7.57;;;;;;;0.63;98.84;100553.53;5033748;28;20259;-67
2022/01/12 07:44:35;;;;;;;9.10;6.90;;;;;;;0.57;97.38;100550.84;5049703;28;20306;-75
2022/01/12 07:47:02;;;;;;;10.33;8.50;;;;;;;0.64;97.81;100551.88;5041478;28;20197;-70
2022/01/12 07:49:31;;;;;;;7.90;7.10;;;;;;;0.61;96.89;100567.78;5051026;28;20211;-72
2022/01/12 07:52:00;;;;;;;9.90;8.97;;;;;;;0.56;97.82;100549.13;5048130;28;20688;-71
2022/01/12 07:54:27;;;;;;;7.03;6.43;;;;;;;0.56;97.33;100543.22;5043575;28;20276;-71
2022/01/12 07:56:53;;;;;;;11.27;5.50;;;;;;;0.59;95.95;100566.88;5054816;28;20200;-71
2022/01/12 07:59:20;;;;;;;5.93;5.43;;;;;;;0.65;96.47;100574.59;5051610;28;20223;-71
2022/01/12 08:01:47;;;;;;;7.23;6.67;;;;;;;0.63;96.35;100585.47;5050003;28;20589;-73
2022/01/12 08:04:14;;;;;;;7.87;7.23;;;;;;;0.62;97.70;100584.63;5047337;28;20546;-72
2022/01/12 08:06:42;;;;;;;5.90;5.30;;;;;;;0.56;96.92;100598.72;5047612;28;20201;-72
2022/01/12 08:09:09;;;;;;;8.30;6.17;;;;;;;0.62;97.65;100599.75;5048147;28;20320;-72
2022/01/12 08:11:35;;;;;;;9.67;6.90;;;;;;;0.64;96.35;100602.34;5048318;28;20204;-70
2022/01/12 08:14:02;;;;;;;7.00;6.27;;;;;;;0.70;95.43;100598.31;5037788;28;20673;-71
2022/01/12 08:16:29;;;;;;;10.47;7.70;;;;;;;0.73;96.48;100598.41;5042349;28;20197;-72
2022/01/12 08:18:56;;;;;;;13.53;10.20;;;;;;;0.71;96.73;100605.06;5052442;28;20267;-70
2022/01/12 08:21:27;;;;;;;47.00;26.67;;;;;;;0.71;95.81;100607.59;5040551;28;20200;-71
2022/01/12 08:24:34;;;;;;;9.57;7.67;;;;;;;0.67;95.54;100608.34;5036850;28;20717;-71
2022/01/12 08:27:02;;;;;;;6.67;6.07;;;;;;;0.64;95.53;100613.28;5040732;28;20205;-71
2022/01/12 08:29:29;;;;;;;10.87;9.73;;;;;;;0.72;95.90;100619.41;5037443;28;20197;-71
2022/01/12 08:31:57;;;;;;;13.20;10.73;;;;;;;0.74;96.15;100620.31;5041682;28;20197;-71
2022/01/12 08:34:24;;;;;;;12.87;10.40;;;;;;;0.68;94.40;100615.06;5039846;28;20254;-71
2022/01/12 08:36:52;;;;;;;11.17;8.83;;;;;;;0.74;95.45;100625.38;5041683;28;20211;-68
2022/01/12 08:39:18;;;;;;;9.50;8.57;;;;;;;0.81;95.94;100627.22;5042780;28;20224;-71
2022/01/12 08:41:45;;;;;;;11.97;9.20;;;;;;;0.89;96.37;100635.91;5044418;28;20197;-71
2022/01/12 08:44:13;;;;;;;31.63;20.33;;;;;;;0.93;96.16;100630.13;5035604;28;20263;-71
2022/01/12 08:46:41;;;;;;;25.10;15.37;;;;;;;0.96;96.31;100624.28;5044653;28;20208;-70
2022/01/12 08:49:09;;;;;;;46.47;25.83;;;;;;;0.90;94.17;100614.03;5039695;28;20204;-71
2022/01/12 08:51:36;;;;;;;9.27;8.43;;;;;;;0.89;93.91;100640.94;5040211;28;20593;-72
2022/01/12 08:54:04;;;;;;;11.10;7.20;;;;;;;0.93;93.27;100636.84;5053552;28;20587;-71
2022/01/12 08:56:30;;;;;;;7.90;7.20;;;;;;;0.89;93.12;100635.91;5037019;28;20201;-71
2022/01/12 08:58:58;;;;;;;44.43;25.33;;;;;;;0.87;92.99;100624.88;5046461;28;20197;-70
2022/01/12 09:01:26;;;;;;;12.47;9.97;;;;;;;0.93;92.59;100632.66;5044272;28;20580;-72
2022/01/12 09:03:53;;;;;;;10.23;8.83;;;;;;;0.89;92.88;100640.06;5041302;28;20201;-71
2022/01/12 09:06:20;;;;;;;7.37;5.97;;;;;;;0.84;92.84;100637.41;5053585;28;20205;-71
2022/01/12 09:08:47;;;;;;;9.93;7.10;;;;;;;0.92;93.43;100635.97;5049176;28;20239;-71
2022/01/12 09:11:15;;;;;;;11.97;10.73;;;;;;;1.00;94.39;100628.63;5055618;28;20205;-75
2022/01/12 09:13:42;;;;;;;7.10;6.50;;;;;;;0.95;92.03;100628.50;5033819;28;20264;-72
2022/01/12 09:16:10;;;;;;;10.87;8.60;;;;;;;1.02;93.07;100632.91;5042378;28;20205;-69
2022/01/12 09:18:40;;;;;;;10.47;9.67;;;;;;;0.94;92.73;100628.44;5033480;28;20201;-68
2022/01/12 09:21:07;;;;;;;7.40;6.63;;;;;;;0.97;91.60;100636.94;5034609;28;20217;-68
2022/01/12 09:23:34;;;;;;;17.20;14.27;;;;;;;1.04;93.57;100641.34;5042224;28;20672;-68
2022/01/12 09:26:03;;;;;;;10.20;7.90;;;;;;;1.09;92.88;100638.13;5049152;28;20204;-71
2022/01/12 09:28:30;;;;;;;8.83;7.93;;;;;;;1.15;92.91;100635.75;5038196;28;20210;-68
2022/01/12 09:30:56;;;;;;;11.07;8.80;;;;;;;1.07;92.27;100622.06;5035886;28;20665;-68
2022/01/12 09:33:23;;;;;;;9.20;8.10;;;;;;;1.13;93.78;100634.88;5048082;28;20208;-69
2022/01/12 09:35:53;;;;;;;13.83;12.43;;;;;;;1.09;91.73;100638.97;5053039;28;20209;-71
2022/01/12 09:38:21;;;;;;;15.03;12.47;;;;;;;1.10;92.78;100629.72;5052760;28;20209;-74
2022/01/12 09:40:52;;;;;;;15.83;11.70;;;;;;;1.09;91.64;100628.88;5032666;28;20225;-70
2022/01/12 09:43:19;;;;;;;17.50;11.60;;;;;;;1.21;92.88;100630.88;5032869;28;20210;-71
2022/01/12 09:45:49;;;;;;;11.47;8.40;;;;;;;1.12;93.89;100618.84;5032943;28;20593;-71
2022/01/12 09:48:17;;;;;;;23.07;13.97;;;;;;;1.16;92.21;100634.94;5032852;28;20216;-70
2022/01/12 09:50:44;;;;;;;18.53;10.73;;;;;;;1.20;93.16;100632.53;5032714;28;20205;-71
2022/01/12 09:53:12;;;;;;;15.93;11.03;;;;;;;1.26;92.84;100631.84;5052736;28;20215;-70
2022/01/12 09:55:39;;;;;;;10.83;9.70;;;;;;;1.26;91.43;100641.97;5052458;28;20219;-71
2022/01/12 09:58:06;;;;;;;10.10;7.33;;;;;;;1.28;92.35;100626.03;5052619;28;20696;-71
2022/01/12 10:00:34;;;;;;;8.43;7.57;;;;;;;1.17;92.24;100607.19;5052358;28;20224;-69
2022/01/12 10:03:10;;;;;;;12.10;10.23;;;;;;;1.29;92.56;100627.75;5052279;28;20701;-68
2022/01/12 10:05:37;;;;;;;13.60;7.43;;;;;;;1.23;91.33;100626.72;5052758;28;20739;-69
2022/01/12 10:08:14;;;;;;;5.57;5.13;;;;;;;1.11;90.97;100613.75;5039691;28;20239;-70
2022/01/12 10:10:41;;;;;;;9.23;8.40;;;;;;;1.15;91.26;100628.16;5052214;28;20200;-69
2022/01/12 10:13:22;;;;;;;9.93;9.10;;;;;;;1.22;91.89;100622.47;5061006;28;20215;-70
2022/01/12 10:15:51;;;;;;;11.77;10.13;;;;;;;1.32;94.51;100622.78;5072087;28;20212;-69
2022/01/12 10:18:19;;;;;;;10.20;9.40;;;;;;;1.39;91.87;100611.16;5071662;28;20680;-70
2022/01/12 10:20:47;;;;;;;16.80;12.57;;;;;;;1.30;89.82;100619.34;5071928;28;20211;-70
2022/01/12 10:23:16;;;;;;;11.03;10.13;;;;;;;1.34;91.98;100612.69;5070915;28;20615;-71
2022/01/12 10:25:46;;;;;;;18.33;13.33;;;;;;;1.34;90.75;100613.56;5057842;28;20680;-70
2022/01/12 10:28:16;;;;;;;12.53;11.07;;;;;;;1.39;91.93;100613.69;5071892;28;20714;-70
2022/01/12 10:30:53;;;;;;;43.40;20.30;;;;;;;1.37;92.87;100617.81;5071931;28;20204;-68
2022/01/12 10:33:20;;;;;;;31.67;15.80;;;;;;;1.43;91.40;100623.03;5071877;28;20235;-69
2022/01/12 10:35:55;;;;;;;32.73;20.27;;;;;;;1.40;90.60;100625.47;5071977;28;20204;-68
2022/01/12 10:38:23;;;;;;;12.30;9.67;;;;;;;1.39;91.62;100617.03;5071773;28;20211;-68
2022/01/12 10:40:52;;;;;;;66.40;31.10;;;;;;;1.52;92.84;100628.31;5071727;28;20235;-68
2022/01/12 10:43:35;;;;;;;36.23;20.17;;;;;;;1.60;91.73;100619.28;5071707;28;20211;-68
2022/01/12 10:46:05;;;;;;;61.27;30.10;;;;;;;1.63;93.23;100619.34;5071691;28;20207;-67
2022/01/12 10:48:46;;;;;;;48.00;20.70;;;;;;;1.70;94.23;100621.22;5071832;28;20587;-68
2022/01/12 10:51:15;;;;;;;39.43;19.47;;;;;;;1.58;90.62;100631.03;5071629;28;20206;-69
2022/01/12 10:53:44;;;;;;;79.87;31.93;;;;;;;1.57;90.07;100635.22;5071869;28;20576;-70
2022/01/12 10:56:13;;;;;;;54.53;23.60;;;;;;;1.69;90.82;100637.19;5071698;28;20671;-68
2022/01/12 10:58:46;;;;;;;14.50;9.43;;;;;;;1.66;91.19;100626.13;5071738;28;20212;-68
2022/01/12 11:01:14;;;;;;;51.43;23.67;;;;;;;1.61;91.66;100605.81;5071528;28;20699;-70
2022/01/12 11:03:41;;;;;;;16.87;11.30;;;;;;;1.74;91.25;100623.00;5071634;28;20196;-71
2022/01/12 11:06:10;;;;;;;11.90;9.73;;;;;;;1.61;91.13;100610.88;5071584;28;20200;-71
2022/01/12 11:08:38;;;;;;;18.57;13.13;;;;;;;1.76;93.31;100621.38;5071347;28;20250;-71
2022/01/12 11:11:07;;;;;;;23.07;14.17;;;;;;;1.89;93.89;100622.50;5059130;28;20280;-71
2022/01/12 11:13:36;;;;;;;28.43;20.33;;;;;;;1.93;92.45;100630.22;5051446;28;20200;-71
2022/01/12 11:16:04;;;;;;;15.80;12.73;;;;;;;1.91;91.47;100620.88;5051432;28;20201;-69
2022/01/12 11:18:33;;;;;;;10.70;9.57;;;;;;;1.81;89.21;100624.00;5051593;28;20209;-73
2022/01/12 11:21:05;;;;;;;10.30;8.87;;;;;;;1.83;91.05;100625.75;5051505;28;20221;-73
2022/01/12 11:23:36;;;;;;;11.93;8.60;;;;;;;1.97;92.49;100619.34;5051426;28;20282;-72
2022/01/12 11:26:15;;;;;;;9.90;8.73;;;;;;;2.06;93.57;100612.00;5051428;28;20228;-69
2022/01/12 11:28:44;;;;;;;8.93;8.33;;;;;;;2.07;93.48;100608.63;5051372;28;20207;-69
2022/01/12 11:31:12;;;;;;;15.87;9.23;;;;;;;2.08;91.00;100610.34;5055394;28;20627;-73
2022/01/12 11:33:42;;;;;;;26.37;16.33;;;;;;;1.96;90.48;100615.13;5055069;28;20236;-72
2022/01/12 11:36:22;;;;;;;15.03;9.83;;;;;;;2.04;92.63;100603.50;5055280;28;20720;-73
2022/01/12 11:38:58;;;;;;;10.27;9.17;;;;;;;2.11;92.67;100607.88;5055076;28;20585;-72
2022/01/12 11:41:29;;;;;;;10.17;9.13;;;;;;;2.13;92.89;100613.00;5070900;28;20219;-72
2022/01/12 11:44:03;;;;;;;10.00;9.00;;;;;;;2.22;92.98;100607.28;5074920;28;20295;-72
2022/01/12 11:46:43;;;;;;;10.77;9.60;;;;;;;2.40;94.87;100610.19;5074959;28;20330;-70
2022/01/12 11:49:10;;;;;;;15.37;8.90;;;;;;;2.23;91.32;100593.81;5074747;28;20290;-72
2022/01/12 11:51:39;;;;;;;18.10;16.00;;;;;;;2.35;91.76;100614.31;5074957;28;20200;-72
2022/01/12 11:54:11;;;;;;;24.10;19.77;;;;;;;2.27;91.07;100616.66;5074577;28;20200;-72
2022/01/12 11:56:52;;;;;;;17.63;15.07;;;;;;;2.30;91.38;100615.88;5071511;28;20196;-70
2022/01/12 11:59:20;;;;;;;19.90;14.20;;;;;;;2.36;93.11;100616.88;5074757;28;20216;-68
2022/01/12 12:01:49;;;;;;;29.60;21.60;;;;;;;2.25;92.71;100605.66;5074379;28;20350;-69
2022/01/12 12:04:25;;;;;;;75.23;40.20;;;;;;;2.42;95.10;100616.16;5074403;28;20250;-67
2022/01/12 12:07:07;;;;;;;262.00;112.40;;;;;;;2.43;93.81;100612.78;5071629;28;20234;-68
2022/01/12 12:16:36;;;;;;;34.20;19.13;;;;;;;2.50;94.93;100624.75;5054675;28;20195;-66
2022/01/12 12:19:05;;;;;;;34.53;22.23;;;;;;;2.46;92.90;100628.03;5067441;28;20200;-72
2022/01/12 12:21:33;;;;;;;25.50;18.70;;;;;;;2.44;92.22;100625.50;5074092;28;20293;-70
2022/01/12 12:24:10;;;;;;;22.33;19.73;;;;;;;2.46;92.80;100630.56;5074210;28;20208;-68
2022/01/12 12:26:45;;;;;;;11.83;10.53;;;;;;;2.50;93.66;100624.75;5067224;28;20262;-70
2022/01/12 12:29:12;;;;;;;10.47;9.50;;;;;;;2.51;95.05;100629.00;5060624;28;20255;-72
2022/01/12 12:31:40;;;;;;;14.80;13.20;;;;;;;2.55;96.78;100629.09;5063507;28;20200;-77
2022/01/12 12:34:07;;;;;;;12.03;10.27;;;;;;;2.63;96.43;100626.75;5065335;28;20209;-73
2022/01/12 12:36:34;;;;;;;10.83;9.50;;;;;;;2.68;96.34;100630.25;5064003;28;20200;-72
2022/01/12 12:39:09;;;;;;;16.67;12.07;;;;;;;2.67;94.82;100626.00;5069541;28;20200;-72
2022/01/12 12:41:40;;;;;;;17.03;11.33;;;;;;;2.77;94.85;100620.31;5066830;28;20215;-72
2022/01/12 12:44:08;;;;;;;17.63;14.60;;;;;;;2.86;94.76;100630.59;5064631;28;20250;-72
2022/01/12 12:46:35;;;;;;;52.60;34.07;;;;;;;2.73;93.33;100633.72;5070189;28;20200;-72
2022/01/12 12:49:10;;;;;;;17.63;12.97;;;;;;;2.83;94.25;100630.53;5065266;28;20204;-71
2022/01/12 12:51:38;;;;;;;44.23;26.93;;;;;;;2.75;93.65;100637.13;5068790;28;20290;-72
2022/01/12 12:54:05;;;;;;;19.83;12.13;;;;;;;2.87;94.30;100639.06;5071345;28;20290;-72
2022/01/12 12:56:40;;;;;;;17.73;10.10;;;;;;;2.91;94.26;100639.13;5071380;28;20266;-72